createdAt,value
2019-04-28T00:01:46.744Z,12.67
2019-04-28T00:04:27.589Z,12.53
2019-04-28T00:07:08.517Z,15.27
2019-04-28T00:09:51.020Z,13.50
2019-04-28T00:12:32.522Z,16.30
2019-04-28T00:15:13.263Z,17.53
2019-04-28T00:17:54.357Z,14.00
2019-04-28T00:26:58.902Z,16.73
2019-04-28T00:29:45.381Z,18.40
2019-04-28T00:32:22.543Z,24.63
2019-04-28T00:35:03.113Z,16.60
2019-04-28T00:37:43.757Z,18.20
2019-04-28T00:40:24.549Z,19.57
2019-04-28T00:43:05.615Z,22.47
2019-04-28T00:45:45.966Z,19.00
2019-04-28T00:48:26.881Z,18.73
2019-04-28T00:51:08.330Z,16.97
2019-04-28T00:53:37.072Z,20.00
2019-04-28T00:56:05.885Z,24.40
2019-04-28T00:58:53.896Z,22.33
2019-04-28T01:02:01.235Z,22.03
2019-04-28T01:04:51.223Z,19.30
2019-04-28T01:07:38.962Z,25.97
2019-04-28T01:13:35.683Z,20.30
2019-04-28T01:16:42.767Z,18.90
2019-04-28T01:22:41.143Z,19.73
2019-04-28T01:25:29.850Z,19.90
2019-04-28T01:28:19.523Z,17.37
2019-04-28T01:31:29.461Z,16.80
2019-04-28T01:37:21.386Z,17.40
2019-04-28T01:40:02.139Z,22.40
2019-04-28T01:42:42.762Z,18.07
2019-04-28T01:45:23.795Z,16.10
2019-04-28T01:48:05.045Z,20.53
2019-04-28T01:50:46.095Z,22.53
2019-04-28T01:53:26.552Z,16.67
2019-04-28T01:56:07.247Z,15.57
2019-04-28T01:58:48.053Z,18.13
2019-04-28T02:01:30.160Z,17.00
2019-04-28T02:04:11.540Z,16.23
2019-04-28T02:06:52.255Z,21.53
2019-04-28T02:09:33.089Z,18.70
2019-04-28T02:12:13.951Z,23.50
2019-04-28T02:14:54.968Z,17.23
2019-04-28T02:17:35.510Z,21.13
2019-04-28T02:20:17.860Z,21.33
2019-04-28T02:23:02.541Z,23.83
2019-04-28T02:25:43.982Z,25.00
2019-04-28T02:28:24.611Z,17.13
2019-04-28T02:31:05.087Z,18.67
2019-04-28T02:33:46.134Z,18.77
2019-04-28T02:36:26.735Z,20.43
2019-04-28T02:39:07.193Z,18.90
2019-04-28T02:41:47.813Z,16.07
2019-04-28T02:44:31.822Z,15.47
2019-04-28T02:47:11.325Z,19.83
2019-04-28T02:50:13.862Z,17.30
2019-04-28T02:53:14.021Z,19.77
2019-04-28T02:55:54.398Z,15.97
2019-04-28T02:58:35.191Z,16.80
2019-04-28T03:01:22.725Z,19.70
2019-04-28T03:04:00.358Z,21.60
2019-04-28T03:06:40.916Z,20.93
2019-04-28T03:09:21.542Z,20.57
2019-04-28T03:12:01.972Z,19.60
2019-04-28T03:14:43.995Z,18.23
2019-04-28T03:17:24.859Z,20.77
2019-04-28T03:20:05.642Z,21.93
2019-04-28T03:22:46.263Z,23.00
2019-04-28T03:25:50.617Z,21.40
2019-04-28T03:28:56.807Z,22.07
2019-04-28T03:34:54.202Z,23.97
2019-04-28T03:37:35.524Z,24.60
2019-04-28T03:40:16.079Z,27.03
2019-04-28T03:42:59.389Z,26.60
2019-04-28T03:45:45.333Z,24.90
2019-04-28T03:48:26.187Z,22.07
2019-04-28T03:51:06.797Z,21.87
2019-04-28T03:53:50.544Z,23.97
2019-04-28T03:56:30.986Z,25.50
2019-04-28T03:59:12.186Z,25.63
2019-04-28T04:01:59.487Z,29.77
2019-04-28T04:04:36.071Z,25.47
2019-04-28T04:07:16.656Z,22.30
2019-04-28T04:13:11.867Z,22.93
2019-04-28T04:16:12.246Z,21.37
2019-04-28T04:18:55.023Z,23.40
2019-04-28T04:21:36.161Z,28.47
2019-04-28T04:24:17.049Z,29.30
2019-04-28T04:26:57.568Z,29.50
2019-04-28T04:29:43.278Z,23.47
2019-04-28T04:32:26.711Z,28.67
2019-04-28T04:35:04.102Z,22.77
2019-04-28T04:37:44.764Z,23.30
2019-04-28T04:40:25.643Z,24.70
2019-04-28T04:43:06.849Z,24.73
2019-04-28T04:45:50.238Z,23.40
2019-04-28T04:48:31.246Z,22.63
2019-04-28T04:51:11.645Z,28.30
2019-04-28T04:53:52.091Z,25.53
2019-04-28T04:56:32.483Z,22.17
2019-04-28T04:59:13.355Z,26.47
2019-04-28T05:02:26.419Z,19.83
2019-04-28T05:05:08.101Z,23.50
2019-04-28T05:07:50.719Z,26.13
2019-04-28T05:10:31.875Z,24.07
2019-04-28T05:13:12.588Z,24.63
2019-04-28T05:15:53.297Z,25.83
2019-04-28T05:18:34.137Z,23.13
2019-04-28T05:21:15.033Z,26.70
2019-04-28T05:24:16.301Z,22.57
2019-04-28T05:26:59.581Z,26.27
2019-04-28T05:29:40.535Z,25.97
2019-04-28T05:32:21.127Z,36.10
2019-04-28T05:35:02.053Z,31.37
2019-04-28T05:37:43.016Z,24.23
2019-04-28T05:40:23.406Z,30.63
2019-04-28T05:43:04.481Z,25.10
2019-04-28T05:45:44.862Z,23.20
2019-04-28T05:48:44.662Z,24.23
2019-04-28T05:51:26.543Z,21.70
2019-04-28T05:54:31.461Z,23.10
2019-04-28T06:00:46.196Z,22.73
2019-04-28T06:03:27.883Z,30.80
2019-04-28T06:06:10.230Z,23.70
2019-04-28T06:12:14.445Z,29.77
2019-04-28T06:14:55.135Z,30.33
2019-04-28T06:17:35.590Z,26.23
2019-04-28T06:20:16.340Z,29.20
2019-04-28T06:22:56.871Z,27.60
2019-04-28T06:25:37.623Z,29.33
2019-04-28T06:28:18.234Z,34.47
2019-04-28T06:30:58.904Z,20.67
2019-04-28T06:33:39.751Z,40.27
2019-04-28T06:36:20.512Z,23.90
2019-04-28T06:39:01.527Z,20.53
2019-04-28T06:41:42.072Z,26.73
2019-04-28T06:44:22.526Z,30.13
2019-04-28T06:47:03.029Z,25.30
2019-04-28T06:49:43.831Z,21.93
2019-04-28T06:52:25.060Z,26.43
2019-04-28T06:55:05.538Z,25.40
2019-04-28T06:57:46.723Z,23.03
2019-04-28T07:00:27.318Z,30.83
2019-04-28T07:03:10.489Z,24.97
2019-04-28T07:05:50.593Z,19.37
2019-04-28T07:08:31.007Z,17.93
2019-04-28T07:11:11.618Z,17.83
2019-04-28T07:13:52.518Z,18.90
2019-04-28T07:16:33.125Z,16.00
2019-04-28T07:19:13.832Z,24.97
2019-04-28T07:22:01.003Z,18.60
2019-04-28T07:24:44.678Z,22.57
2019-04-28T07:27:24.362Z,16.77
2019-04-28T07:30:05.024Z,20.30
2019-04-28T07:32:46.480Z,21.93
2019-04-28T07:35:27.855Z,17.40
2019-04-28T07:38:08.923Z,23.13
2019-04-28T07:40:49.391Z,32.13
2019-04-28T07:43:30.299Z,23.57
2019-04-28T07:46:10.674Z,18.13
2019-04-28T07:48:52.510Z,22.50
2019-04-28T07:54:40.143Z,20.90
2019-04-28T07:57:23.999Z,16.03
2019-04-28T08:00:04.153Z,21.80
2019-04-28T08:02:45.161Z,21.47
2019-04-28T08:05:25.931Z,29.20
2019-04-28T08:08:07.176Z,24.73
2019-04-28T08:10:47.806Z,27.60
2019-04-28T08:13:28.595Z,26.60
2019-04-28T08:16:09.616Z,25.27
2019-04-28T08:18:50.172Z,17.53
2019-04-28T08:21:30.934Z,22.50
2019-04-28T08:24:11.203Z,19.93
2019-04-28T08:26:51.949Z,20.80
2019-04-28T08:29:32.451Z,19.43
2019-04-28T08:32:35.115Z,24.30
2019-04-28T08:35:16.386Z,23.87
2019-04-28T08:37:57.668Z,20.50
2019-04-28T08:40:38.483Z,24.27
2019-04-28T08:43:19.731Z,25.37
2019-04-28T08:46:00.234Z,18.77
2019-04-28T08:48:40.883Z,19.33
2019-04-28T08:51:21.727Z,17.57
2019-04-28T08:54:02.420Z,15.90
2019-04-28T08:56:43.372Z,26.57
2019-04-28T08:59:24.204Z,19.53
2019-04-28T09:02:04.875Z,21.50
2019-04-28T09:04:46.284Z,21.53
2019-04-28T09:07:26.847Z,18.23
2019-04-28T09:10:07.822Z,18.00
2019-04-28T09:12:48.532Z,24.37
2019-04-28T09:15:29.645Z,13.97
2019-04-28T09:18:10.232Z,14.73
2019-04-28T09:20:51.280Z,19.67
2019-04-28T09:23:31.883Z,16.80
2019-04-28T09:26:12.359Z,20.37
2019-04-28T09:28:53.453Z,18.50
2019-04-28T09:31:34.398Z,16.93
2019-04-28T09:34:27.520Z,19.90
2019-04-28T09:36:57.812Z,18.03
2019-04-28T09:45:56.026Z,13.07
2019-04-28T09:48:37.054Z,10.60
2019-04-28T09:51:17.962Z,11.27
2019-04-28T09:53:58.351Z,11.10
2019-04-28T09:56:38.918Z,10.73
2019-04-28T09:59:19.302Z,8.10
2019-04-28T10:02:00.251Z,7.30
2019-04-28T10:04:42.045Z,7.97
2019-04-28T10:07:22.926Z,13.50
2019-04-28T10:10:03.242Z,6.60
2019-04-28T10:12:44.026Z,8.83
2019-04-28T10:15:24.373Z,10.53
2019-04-28T10:18:05.105Z,8.30
2019-04-28T10:20:45.815Z,7.33
2019-04-28T10:23:26.497Z,6.23
2019-04-28T10:26:07.603Z,10.30
2019-04-28T10:28:48.936Z,7.80
2019-04-28T10:31:29.650Z,8.83
2019-04-28T10:34:10.547Z,8.07
2019-04-28T10:36:51.274Z,5.83
2019-04-28T10:39:37.467Z,6.80
2019-04-28T10:42:18.227Z,6.33
2019-04-28T10:44:58.813Z,9.30
2019-04-28T10:47:39.651Z,7.60
2019-04-28T10:50:20.526Z,8.30
2019-04-28T10:53:01.226Z,5.90
2019-04-28T10:55:41.879Z,8.43
2019-04-28T10:58:22.910Z,4.53
2019-04-28T11:01:03.370Z,3.70
2019-04-28T11:03:45.979Z,8.63
2019-04-28T11:06:26.574Z,7.60
2019-04-28T11:12:07.438Z,9.70
2019-04-28T11:14:48.075Z,6.60
2019-04-28T11:17:28.706Z,12.17
2019-04-28T11:20:09.768Z,5.50
2019-04-28T11:22:50.771Z,13.63
2019-04-28T11:25:31.406Z,8.87
2019-04-28T11:28:11.986Z,9.37
2019-04-28T11:30:52.598Z,8.00
2019-04-28T11:36:34.707Z,9.13
2019-04-28T11:39:19.887Z,6.77
2019-04-28T11:42:00.842Z,7.77
2019-04-28T11:44:41.611Z,7.40
2019-04-28T11:47:24.011Z,5.80
2019-04-28T11:50:04.792Z,7.60
2019-04-28T11:52:45.500Z,8.70
2019-04-28T11:55:26.288Z,6.77
2019-04-28T11:58:07.580Z,4.23
2019-04-28T12:00:48.560Z,9.90
2019-04-28T12:03:29.408Z,6.93
2019-04-28T12:06:10.318Z,6.60
2019-04-28T12:08:52.496Z,8.60
2019-04-28T12:11:39.354Z,4.73
2019-04-28T12:17:43.964Z,4.40
2019-04-28T12:20:25.523Z,4.87
2019-04-28T12:23:06.636Z,5.13
2019-04-28T12:25:47.403Z,7.77
2019-04-28T12:28:28.034Z,6.83
2019-04-28T12:31:08.626Z,7.10
2019-04-28T12:33:49.171Z,9.10
2019-04-28T12:36:30.268Z,8.73
2019-04-28T12:39:10.940Z,10.00
2019-04-28T12:41:51.335Z,8.50
2019-04-28T12:44:32.067Z,14.63
2019-04-28T12:47:12.891Z,12.20
2019-04-28T12:52:48.410Z,8.00
2019-04-28T12:55:28.822Z,11.03
2019-04-28T12:58:09.774Z,14.03
2019-04-28T13:01:10.282Z,7.70
2019-04-28T13:04:10.586Z,8.27
2019-04-28T13:07:10.551Z,6.00
2019-04-28T13:09:51.503Z,9.97
2019-04-28T13:12:31.898Z,9.17
2019-04-28T13:15:13.224Z,8.93
2019-04-28T13:17:53.866Z,6.70
2019-04-28T13:20:34.519Z,7.20
2019-04-28T13:23:15.170Z,6.20
2019-04-28T13:25:55.585Z,8.23
2019-04-28T13:28:36.356Z,6.80
2019-04-28T13:31:17.035Z,5.27
2019-04-28T13:33:59.150Z,10.30
2019-04-28T13:36:40.046Z,6.20
2019-04-28T13:39:42.639Z,10.00
2019-04-28T13:42:23.675Z,5.40
2019-04-28T13:45:07.850Z,6.83
2019-04-28T13:47:46.923Z,7.40
2019-04-28T13:53:31.615Z,5.00
2019-04-28T13:56:20.018Z,4.70
2019-04-28T13:59:29.108Z,7.13
2019-04-28T14:08:43.863Z,7.07
2019-04-28T14:11:31.983Z,5.57
2019-04-28T14:14:20.015Z,7.50
2019-04-28T14:17:08.037Z,5.03
2019-04-28T14:19:56.148Z,6.03
2019-04-28T14:22:44.171Z,4.60
2019-04-28T14:25:32.189Z,4.07
2019-04-28T14:28:20.566Z,4.23
2019-04-28T14:31:08.590Z,5.50
2019-04-28T14:33:56.955Z,6.50
2019-04-28T14:36:42.099Z,7.33
2019-04-28T14:39:20.356Z,6.23
2019-04-28T14:42:01.280Z,4.50
2019-04-28T14:44:41.882Z,7.13
2019-04-28T14:47:22.979Z,6.40
2019-04-28T14:50:03.400Z,5.27
2019-04-28T14:52:44.238Z,7.60
2019-04-28T14:55:24.809Z,6.17
2019-04-28T14:58:05.480Z,5.37
2019-04-28T15:00:50.406Z,5.17
2019-04-28T15:03:32.206Z,5.03
2019-04-28T15:06:19.397Z,6.73
2019-04-28T15:12:08.659Z,5.30
2019-04-28T15:14:49.478Z,9.37
2019-04-28T15:17:30.128Z,6.23
2019-04-28T15:20:10.967Z,6.87
2019-04-28T15:22:52.087Z,6.07
2019-04-28T15:25:33.275Z,7.13
2019-04-28T15:28:13.810Z,6.87
2019-04-28T15:30:54.339Z,12.23
2019-04-28T15:33:35.133Z,6.70
2019-04-28T15:36:16.737Z,4.80
2019-04-28T15:38:57.850Z,5.73
2019-04-28T15:41:39.325Z,10.77
2019-04-28T15:44:20.679Z,8.57
2019-04-28T15:47:02.140Z,5.50
2019-04-28T15:49:43.473Z,8.43
2019-04-28T15:52:24.932Z,8.67
2019-04-28T15:55:08.083Z,5.73
2019-04-28T15:57:49.438Z,5.33
2019-04-28T16:00:30.448Z,10.13
2019-04-28T16:03:11.091Z,5.87
2019-04-28T16:05:52.639Z,6.80
2019-04-28T16:08:33.565Z,6.40
2019-04-28T16:11:14.477Z,9.00
2019-04-28T16:13:55.448Z,8.70
2019-04-28T16:16:36.829Z,13.80
2019-04-28T16:19:17.477Z,6.20
2019-04-28T16:21:58.903Z,11.40
2019-04-28T16:24:39.423Z,6.33
2019-04-28T16:27:20.427Z,7.07
2019-04-28T16:30:01.576Z,7.33
2019-04-28T16:32:43.259Z,7.80
2019-04-28T16:35:23.801Z,8.05
2019-04-28T16:38:04.635Z,7.83
2019-04-28T16:40:45.194Z,7.10
2019-04-28T16:43:26.276Z,8.40
2019-04-28T16:46:07.023Z,7.60
2019-04-28T16:48:47.964Z,4.83
2019-04-28T16:51:28.929Z,6.50
2019-04-28T16:54:09.822Z,5.37
2019-04-28T17:00:06.967Z,10.10
2019-04-28T17:02:50.481Z,6.27
2019-04-28T17:05:31.688Z,8.40
2019-04-28T17:08:12.954Z,4.83
2019-04-28T17:10:54.204Z,5.83
2019-04-28T17:13:35.276Z,6.13
2019-04-28T17:16:16.670Z,5.20
2019-04-28T17:18:57.384Z,7.03
2019-04-28T17:21:38.913Z,5.33
2019-04-28T17:24:20.245Z,7.77
2019-04-28T17:27:01.427Z,4.23
2019-04-28T17:29:42.446Z,5.87
2019-04-28T17:32:23.893Z,6.37
2019-04-28T17:35:04.972Z,6.37
2019-04-28T17:37:45.621Z,6.93
2019-04-28T17:40:27.805Z,8.30
2019-04-28T17:43:08.706Z,9.23
2019-04-28T17:45:49.230Z,8.20
2019-04-28T17:48:33.830Z,6.07
2019-04-28T17:51:14.985Z,7.83
2019-04-28T17:53:55.935Z,7.70
2019-04-28T17:56:37.402Z,5.70
2019-04-28T17:59:18.431Z,8.83
2019-04-28T18:05:33.524Z,8.13
2019-04-28T18:08:20.901Z,7.47
2019-04-28T18:10:57.687Z,10.00
2019-04-28T18:13:39.316Z,11.47
2019-04-28T18:19:33.579Z,10.50
2019-04-28T18:22:14.844Z,11.10
2019-04-28T18:24:56.055Z,6.20
2019-04-28T18:27:37.932Z,10.47
2019-04-28T18:30:21.078Z,10.20
2019-04-28T18:33:23.487Z,13.80
2019-04-28T18:39:32.174Z,10.97
2019-04-28T18:45:28.305Z,7.50
2019-04-28T18:48:09.107Z,7.70
2019-04-28T18:50:49.675Z,10.33
2019-04-28T18:53:31.012Z,7.07
2019-04-28T18:56:11.647Z,9.40
2019-04-28T18:58:52.340Z,6.63
2019-04-28T19:01:52.037Z,8.90
2019-04-28T19:04:32.751Z,8.03
2019-04-28T19:07:16.076Z,7.60
2019-04-28T19:12:58.321Z,8.70
2019-04-28T19:15:47.058Z,9.57
2019-04-28T19:21:32.309Z,8.43
2019-04-28T19:24:20.338Z,8.87
2019-04-28T19:27:08.333Z,9.53
2019-04-28T19:29:56.373Z,7.10
2019-04-28T19:32:44.364Z,12.47
2019-04-28T19:35:32.389Z,7.90
2019-04-28T19:38:20.662Z,10.23
2019-04-28T19:41:08.670Z,10.90
2019-04-28T19:43:57.055Z,8.20
2019-04-28T19:46:45.114Z,10.23
2019-04-28T19:49:44.834Z,10.37
2019-04-28T20:04:21.735Z,8.77
2019-04-28T20:07:09.839Z,9.30
2019-04-28T20:09:57.846Z,11.63
2019-04-28T20:12:45.842Z,12.80
2019-04-28T20:15:33.922Z,11.50
2019-04-28T20:18:22.301Z,15.83
2019-04-28T20:21:11.211Z,9.63
2019-04-28T20:23:59.595Z,8.47
2019-04-28T20:26:47.613Z,7.97
2019-04-28T20:29:35.615Z,12.20
2019-04-28T20:32:23.874Z,9.13
2019-04-28T20:35:12.197Z,8.17
2019-04-28T20:37:58.308Z,10.27
2019-04-28T20:40:44.322Z,8.73
2019-04-28T20:43:25.945Z,12.50
2019-04-28T20:46:06.347Z,9.00
2019-04-28T20:48:47.022Z,9.30
2019-04-28T20:51:27.307Z,10.70
2019-04-28T20:54:07.754Z,9.90
2019-04-28T20:56:48.427Z,13.80
2019-04-28T20:59:29.094Z,10.43
2019-04-28T21:02:10.165Z,9.67
2019-04-28T21:04:50.726Z,10.70
2019-04-28T21:07:31.353Z,10.33
2019-04-28T21:10:12.700Z,9.10
2019-04-28T21:12:53.694Z,16.10
2019-04-28T21:15:34.588Z,10.90
2019-04-28T21:18:15.423Z,8.07
2019-04-28T21:20:55.818Z,12.50
2019-04-28T21:23:36.395Z,8.37
2019-04-28T21:26:17.462Z,9.80
2019-04-28T21:28:58.054Z,7.17
2019-04-28T21:31:38.699Z,8.53
2019-04-28T21:34:19.635Z,9.50
2019-04-28T21:37:00.435Z,9.90
2019-04-28T21:39:40.703Z,5.97
2019-04-28T21:42:24.134Z,9.40
2019-04-28T21:45:23.983Z,6.00
2019-04-28T21:48:04.584Z,6.67
2019-04-28T21:50:45.181Z,10.33
2019-04-28T21:53:25.836Z,10.13
2019-04-28T21:56:06.298Z,13.43
2019-04-28T21:58:46.874Z,9.77
2019-04-28T22:01:27.928Z,6.90
2019-04-28T22:04:08.950Z,7.40
2019-04-28T22:06:49.730Z,11.13
2019-04-28T22:09:30.315Z,7.10
2019-04-28T22:12:11.123Z,9.27
2019-04-28T22:14:52.135Z,12.63
2019-04-28T22:17:33.087Z,7.53
2019-04-28T22:20:14.147Z,12.33
2019-04-28T22:22:56.467Z,9.23
2019-04-28T22:25:37.610Z,16.20
2019-04-28T22:28:18.282Z,12.17
2019-04-28T22:30:58.960Z,13.07
2019-04-28T22:33:39.807Z,9.23
2019-04-28T22:36:20.865Z,10.80
2019-04-28T22:39:01.271Z,8.90
2019-04-28T22:41:42.162Z,9.33
2019-04-28T22:44:23.702Z,9.33
2019-04-28T22:47:04.136Z,7.03
2019-04-28T22:49:44.779Z,12.80
2019-04-28T22:52:25.664Z,12.80
2019-04-28T22:55:13.974Z,11.57
2019-04-28T22:58:14.248Z,10.47
2019-04-28T23:00:58.190Z,11.70
2019-04-28T23:06:47.815Z,8.70
2019-04-28T23:09:28.719Z,11.80
2019-04-28T23:12:10.115Z,9.00
2019-04-28T23:14:51.215Z,8.40
2019-04-28T23:17:32.004Z,8.37
2019-04-28T23:20:12.629Z,11.33
2019-04-28T23:22:53.903Z,10.97
2019-04-28T23:25:34.731Z,9.20
2019-04-28T23:28:15.432Z,9.97
2019-04-28T23:30:56.187Z,11.73
2019-04-28T23:33:36.839Z,10.13
2019-04-28T23:36:17.829Z,11.00
2019-04-28T23:38:58.556Z,10.30
2019-04-28T23:44:34.775Z,10.73
2019-04-28T23:47:15.839Z,11.77
2019-04-28T23:49:56.480Z,9.87
2019-04-28T23:55:31.795Z,12.00
2019-04-28T23:58:12.702Z,11.90
